sensor_id;sensor_type;location;lat;lon;timestamp;P1;durP1;ratioP1;P2;durP2;ratioP2
51124;SDS011;37163;55.556;39.108;2023-04-25T00:01:35;12.13;;;6.57;;
51124;SDS011;37163;55.556;39.108;2023-04-25T00:04:03;15.32;;;7.50;;
51124;SDS011;37163;55.556;39.108;2023-04-25T00:06:32;16.17;;;8.02;;
51124;SDS011;37163;55.556;39.108;2023-04-25T00:08:58;25.23;;;9.93;;
51124;SDS011;37163;55.556;39.108;2023-04-25T00:11:25;38.17;;;14.93;;
51124;SDS011;37163;55.556;39.108;2023-04-25T00:13:51;15.50;;;7.85;;
51124;SDS011;37163;55.556;39.108;2023-04-25T00:16:18;13.68;;;6.28;;
51124;SDS011;37163;55.556;39.108;2023-04-25T00:18:44;10.88;;;4.95;;
51124;SDS011;37163;55.556;39.108;2023-04-25T00:21:17;8.77;;;5.70;;
51124;SDS011;37163;55.556;39.108;2023-04-25T00:23:45;12.25;;;5.72;;
51124;SDS011;37163;55.556;39.108;2023-04-25T00:26:12;13.63;;;7.82;;
51124;SDS011;37163;55.556;39.108;2023-04-25T00:28:39;16.08;;;8.20;;
51124;SDS011;37163;55.556;39.108;2023-04-25T00:31:06;17.73;;;8.15;;
51124;SDS011;37163;55.556;39.108;2023-04-25T00:33:33;20.80;;;10.15;;
51124;SDS011;37163;55.556;39.108;2023-04-25T00:35:59;18.17;;;8.90;;
51124;SDS011;37163;55.556;39.108;2023-04-25T00:38:26;16.02;;;8.50;;
51124;SDS011;37163;55.556;39.108;2023-04-25T00:40:52;22.83;;;8.88;;
51124;SDS011;37163;55.556;39.108;2023-04-25T00:43:19;17.95;;;7.22;;
51124;SDS011;37163;55.556;39.108;2023-04-25T00:45:46;12.15;;;6.75;;
51124;SDS011;37163;55.556;39.108;2023-04-25T00:48:14;9.38;;;5.63;;
51124;SDS011;37163;55.556;39.108;2023-04-25T00:50:41;14.20;;;8.23;;
51124;SDS011;37163;55.556;39.108;2023-04-25T00:53:07;21.98;;;9.85;;
51124;SDS011;37163;55.556;39.108;2023-04-25T00:55:35;22.27;;;10.95;;
51124;SDS011;37163;55.556;39.108;2023-04-25T00:58:02;27.58;;;13.13;;
51124;SDS011;37163;55.556;39.108;2023-04-25T01:00:28;28.52;;;14.38;;
51124;SDS011;37163;55.556;39.108;2023-04-25T01:02:55;37.75;;;15.07;;
51124;SDS011;37163;55.556;39.108;2023-04-25T01:05:22;23.92;;;11.75;;
51124;SDS011;37163;55.556;39.108;2023-04-25T01:07:49;19.80;;;9.48;;
51124;SDS011;37163;55.556;39.108;2023-04-25T01:10:15;11.27;;;5.97;;
51124;SDS011;37163;55.556;39.108;2023-04-25T01:12:42;8.13;;;5.18;;
51124;SDS011;37163;55.556;39.108;2023-04-25T01:15:08;13.80;;;7.43;;
51124;SDS011;37163;55.556;39.108;2023-04-25T01:17:36;16.42;;;8.15;;
51124;SDS011;37163;55.556;39.108;2023-04-25T01:20:03;27.98;;;11.82;;
51124;SDS011;37163;55.556;39.108;2023-04-25T01:22:31;15.82;;;8.27;;
51124;SDS011;37163;55.556;39.108;2023-04-25T01:24:58;24.83;;;8.32;;
51124;SDS011;37163;55.556;39.108;2023-04-25T01:27:25;13.55;;;8.10;;
51124;SDS011;37163;55.556;39.108;2023-04-25T01:29:52;22.38;;;9.05;;
51124;SDS011;37163;55.556;39.108;2023-04-25T01:32:20;14.63;;;6.32;;
51124;SDS011;37163;55.556;39.108;2023-04-25T01:34:48;16.33;;;8.75;;
51124;SDS011;37163;55.556;39.108;2023-04-25T01:37:15;15.52;;;7.05;;
51124;SDS011;37163;55.556;39.108;2023-04-25T01:39:44;13.15;;;6.28;;
51124;SDS011;37163;55.556;39.108;2023-04-25T01:42:12;11.70;;;5.60;;
51124;SDS011;37163;55.556;39.108;2023-04-25T01:44:39;9.70;;;4.75;;
51124;SDS011;37163;55.556;39.108;2023-04-25T01:47:05;8.65;;;5.15;;
51124;SDS011;37163;55.556;39.108;2023-04-25T01:49:32;6.53;;;4.00;;
51124;SDS011;37163;55.556;39.108;2023-04-25T01:51:58;12.30;;;4.60;;
51124;SDS011;37163;55.556;39.108;2023-04-25T01:54:25;10.05;;;5.13;;
51124;SDS011;37163;55.556;39.108;2023-04-25T01:56:52;10.82;;;5.47;;
51124;SDS011;37163;55.556;39.108;2023-04-25T01:59:20;13.32;;;5.40;;
51124;SDS011;37163;55.556;39.108;2023-04-25T02:02:06;10.65;;;5.40;;
51124;SDS011;37163;55.556;39.108;2023-04-25T02:04:34;9.40;;;4.75;;
51124;SDS011;37163;55.556;39.108;2023-04-25T02:07:01;11.88;;;5.03;;
51124;SDS011;37163;55.556;39.108;2023-04-25T02:09:38;12.63;;;5.22;;
51124;SDS011;37163;55.556;39.108;2023-04-25T02:12:07;14.88;;;5.85;;
51124;SDS011;37163;55.556;39.108;2023-04-25T02:15:02;13.30;;;6.18;;
51124;SDS011;37163;55.556;39.108;2023-04-25T02:18:11;17.15;;;7.32;;
51124;SDS011;37163;55.556;39.108;2023-04-25T02:20:39;10.10;;;5.43;;
51124;SDS011;37163;55.556;39.108;2023-04-25T02:23:06;15.18;;;6.57;;
51124;SDS011;37163;55.556;39.108;2023-04-25T02:25:32;8.20;;;4.93;;
51124;SDS011;37163;55.556;39.108;2023-04-25T02:27:59;12.43;;;5.90;;
51124;SDS011;37163;55.556;39.108;2023-04-25T02:30:26;11.80;;;5.25;;
51124;SDS011;37163;55.556;39.108;2023-04-25T02:33:10;10.15;;;4.72;;
51124;SDS011;37163;55.556;39.108;2023-04-25T02:35:37;12.00;;;5.90;;
51124;SDS011;37163;55.556;39.108;2023-04-25T02:38:03;12.50;;;5.63;;
51124;SDS011;37163;55.556;39.108;2023-04-25T02:40:30;10.88;;;5.30;;
51124;SDS011;37163;55.556;39.108;2023-04-25T02:42:56;14.55;;;6.13;;
51124;SDS011;37163;55.556;39.108;2023-04-25T02:45:26;15.43;;;7.05;;
51124;SDS011;37163;55.556;39.108;2023-04-25T02:47:52;15.60;;;6.63;;
51124;SDS011;37163;55.556;39.108;2023-04-25T02:50:18;12.43;;;5.60;;
51124;SDS011;37163;55.556;39.108;2023-04-25T02:52:45;11.35;;;5.55;;
51124;SDS011;37163;55.556;39.108;2023-04-25T02:55:15;15.32;;;5.95;;
51124;SDS011;37163;55.556;39.108;2023-04-25T02:57:43;16.30;;;7.03;;
51124;SDS011;37163;55.556;39.108;2023-04-25T03:00:13;17.73;;;6.45;;
51124;SDS011;37163;55.556;39.108;2023-04-25T03:02:40;21.13;;;7.22;;
51124;SDS011;37163;55.556;39.108;2023-04-25T03:05:06;12.95;;;6.22;;
51124;SDS011;37163;55.556;39.108;2023-04-25T03:07:34;12.80;;;5.95;;
51124;SDS011;37163;55.556;39.108;2023-04-25T03:10:01;17.67;;;7.40;;
51124;SDS011;37163;55.556;39.108;2023-04-25T03:12:32;18.27;;;7.85;;
51124;SDS011;37163;55.556;39.108;2023-04-25T03:14:58;16.05;;;7.03;;
51124;SDS011;37163;55.556;39.108;2023-04-25T03:17:25;20.88;;;7.43;;
51124;SDS011;37163;55.556;39.108;2023-04-25T03:19:51;18.60;;;7.13;;
51124;SDS011;37163;55.556;39.108;2023-04-25T03:22:18;14.35;;;5.70;;
51124;SDS011;37163;55.556;39.108;2023-04-25T03:24:45;12.50;;;4.57;;
51124;SDS011;37163;55.556;39.108;2023-04-25T03:27:13;8.73;;;5.50;;
51124;SDS011;37163;55.556;39.108;2023-04-25T03:29:40;12.32;;;5.43;;
51124;SDS011;37163;55.556;39.108;2023-04-25T03:32:06;13.80;;;6.60;;
51124;SDS011;37163;55.556;39.108;2023-04-25T03:34:33;10.48;;;4.93;;
51124;SDS011;37163;55.556;39.108;2023-04-25T03:36:59;13.25;;;5.13;;
51124;SDS011;37163;55.556;39.108;2023-04-25T03:39:26;15.48;;;5.68;;
51124;SDS011;37163;55.556;39.108;2023-04-25T03:41:53;8.73;;;4.28;;
51124;SDS011;37163;55.556;39.108;2023-04-25T03:44:20;12.38;;;4.70;;
51124;SDS011;37163;55.556;39.108;2023-04-25T03:46:47;14.88;;;7.30;;
51124;SDS011;37163;55.556;39.108;2023-04-25T03:49:14;11.75;;;6.70;;
51124;SDS011;37163;55.556;39.108;2023-04-25T03:51:56;11.45;;;5.63;;
51124;SDS011;37163;55.556;39.108;2023-04-25T03:54:22;7.07;;;4.60;;
51124;SDS011;37163;55.556;39.108;2023-04-25T03:56:55;10.30;;;5.05;;
51124;SDS011;37163;55.556;39.108;2023-04-25T03:59:24;11.80;;;4.80;;
51124;SDS011;37163;55.556;39.108;2023-04-25T04:01:52;14.60;;;6.72;;
51124;SDS011;37163;55.556;39.108;2023-04-25T04:04:18;10.88;;;6.07;;
51124;SDS011;37163;55.556;39.108;2023-04-25T04:06:45;9.82;;;6.55;;
51124;SDS011;37163;55.556;39.108;2023-04-25T04:09:23;14.35;;;6.70;;
51124;SDS011;37163;55.556;39.108;2023-04-25T04:11:49;8.75;;;5.88;;
51124;SDS011;37163;55.556;39.108;2023-04-25T04:14:16;10.35;;;6.07;;
51124;SDS011;37163;55.556;39.108;2023-04-25T04:16:44;16.00;;;7.60;;
51124;SDS011;37163;55.556;39.108;2023-04-25T04:19:11;19.77;;;11.27;;
51124;SDS011;37163;55.556;39.108;2023-04-25T04:21:42;9.93;;;5.32;;
51124;SDS011;37163;55.556;39.108;2023-04-25T04:24:09;9.45;;;4.47;;
51124;SDS011;37163;55.556;39.108;2023-04-25T04:26:49;8.73;;;5.13;;
51124;SDS011;37163;55.556;39.108;2023-04-25T04:29:35;9.57;;;5.13;;
51124;SDS011;37163;55.556;39.108;2023-04-25T04:32:13;9.70;;;4.85;;
51124;SDS011;37163;55.556;39.108;2023-04-25T04:34:40;8.77;;;4.70;;
51124;SDS011;37163;55.556;39.108;2023-04-25T04:37:07;10.00;;;5.30;;
51124;SDS011;37163;55.556;39.108;2023-04-25T04:39:36;8.07;;;4.35;;
51124;SDS011;37163;55.556;39.108;2023-04-25T04:42:13;9.55;;;4.65;;
51124;SDS011;37163;55.556;39.108;2023-04-25T04:45:01;8.65;;;3.78;;
51124;SDS011;37163;55.556;39.108;2023-04-25T04:47:46;7.40;;;3.83;;
51124;SDS011;37163;55.556;39.108;2023-04-25T04:50:32;7.22;;;3.35;;
51124;SDS011;37163;55.556;39.108;2023-04-25T04:53:18;5.35;;;3.25;;
51124;SDS011;37163;55.556;39.108;2023-04-25T04:55:57;8.38;;;3.30;;
51124;SDS011;37163;55.556;39.108;2023-04-25T04:58:42;6.60;;;3.55;;
51124;SDS011;37163;55.556;39.108;2023-04-25T05:01:42;5.75;;;3.20;;
51124;SDS011;37163;55.556;39.108;2023-04-25T05:04:08;6.75;;;3.15;;
51124;SDS011;37163;55.556;39.108;2023-04-25T05:09:26;5.82;;;3.80;;
51124;SDS011;37163;55.556;39.108;2023-04-25T05:12:10;6.15;;;3.58;;
51124;SDS011;37163;55.556;39.108;2023-04-25T05:15:03;8.18;;;3.97;;
51124;SDS011;37163;55.556;39.108;2023-04-25T05:17:39;8.50;;;3.92;;
51124;SDS011;37163;55.556;39.108;2023-04-25T05:20:24;6.75;;;3.97;;
51124;SDS011;37163;55.556;39.108;2023-04-25T05:23:13;7.55;;;3.67;;
51124;SDS011;37163;55.556;39.108;2023-04-25T05:25:53;8.07;;;3.97;;
51124;SDS011;37163;55.556;39.108;2023-04-25T05:28:30;5.82;;;3.00;;
51124;SDS011;37163;55.556;39.108;2023-04-25T05:31:09;9.38;;;3.28;;
51124;SDS011;37163;55.556;39.108;2023-04-25T05:33:47;6.00;;;2.85;;
51124;SDS011;37163;55.556;39.108;2023-04-25T05:36:14;6.43;;;3.30;;
51124;SDS011;37163;55.556;39.108;2023-04-25T05:38:41;5.88;;;3.42;;
51124;SDS011;37163;55.556;39.108;2023-04-25T05:41:34;5.53;;;3.35;;
51124;SDS011;37163;55.556;39.108;2023-04-25T05:44:20;6.25;;;3.13;;
51124;SDS011;37163;55.556;39.108;2023-04-25T05:47:07;4.68;;;3.17;;
51124;SDS011;37163;55.556;39.108;2023-04-25T05:50:06;10.40;;;3.03;;
51124;SDS011;37163;55.556;39.108;2023-04-25T05:53:04;6.57;;;3.30;;
51124;SDS011;37163;55.556;39.108;2023-04-25T05:55:35;5.38;;;3.00;;
51124;SDS011;37163;55.556;39.108;2023-04-25T05:58:16;4.75;;;2.90;;
51124;SDS011;37163;55.556;39.108;2023-04-25T06:00:42;5.30;;;2.97;;
51124;SDS011;37163;55.556;39.108;2023-04-25T06:03:09;6.68;;;3.42;;
51124;SDS011;37163;55.556;39.108;2023-04-25T06:05:35;5.65;;;2.97;;
51124;SDS011;37163;55.556;39.108;2023-04-25T06:08:02;5.85;;;3.13;;
51124;SDS011;37163;55.556;39.108;2023-04-25T06:10:29;4.95;;;3.03;;
51124;SDS011;37163;55.556;39.108;2023-04-25T06:12:56;7.00;;;2.85;;
51124;SDS011;37163;55.556;39.108;2023-04-25T06:15:23;5.28;;;2.63;;
51124;SDS011;37163;55.556;39.108;2023-04-25T06:17:50;5.93;;;2.97;;
51124;SDS011;37163;55.556;39.108;2023-04-25T06:20:16;5.80;;;2.92;;
51124;SDS011;37163;55.556;39.108;2023-04-25T06:22:43;5.97;;;3.40;;
51124;SDS011;37163;55.556;39.108;2023-04-25T06:25:10;6.22;;;2.30;;
51124;SDS011;37163;55.556;39.108;2023-04-25T06:27:36;5.13;;;2.30;;
51124;SDS011;37163;55.556;39.108;2023-04-25T06:30:04;4.90;;;2.88;;
51124;SDS011;37163;55.556;39.108;2023-04-25T06:32:33;5.78;;;2.42;;
51124;SDS011;37163;55.556;39.108;2023-04-25T06:35:00;4.65;;;2.50;;
51124;SDS011;37163;55.556;39.108;2023-04-25T06:37:30;7.05;;;2.70;;
51124;SDS011;37163;55.556;39.108;2023-04-25T06:40:04;4.15;;;2.58;;
51124;SDS011;37163;55.556;39.108;2023-04-25T06:42:46;8.32;;;4.20;;
51124;SDS011;37163;55.556;39.108;2023-04-25T06:45:51;8.82;;;4.03;;
51124;SDS011;37163;55.556;39.108;2023-04-25T06:48:19;18.80;;;8.05;;
51124;SDS011;37163;55.556;39.108;2023-04-25T06:50:46;9.57;;;4.75;;
51124;SDS011;37163;55.556;39.108;2023-04-25T06:53:13;9.75;;;5.28;;
51124;SDS011;37163;55.556;39.108;2023-04-25T06:55:42;6.78;;;2.78;;
51124;SDS011;37163;55.556;39.108;2023-04-25T06:58:18;6.00;;;2.45;;
51124;SDS011;37163;55.556;39.108;2023-04-25T07:01:01;5.78;;;2.55;;
51124;SDS011;37163;55.556;39.108;2023-04-25T07:03:28;13.73;;;6.07;;
51124;SDS011;37163;55.556;39.108;2023-04-25T07:05:59;16.70;;;8.40;;
51124;SDS011;37163;55.556;39.108;2023-04-25T07:08:26;6.22;;;3.15;;
51124;SDS011;37163;55.556;39.108;2023-04-25T07:10:52;8.45;;;3.72;;
51124;SDS011;37163;55.556;39.108;2023-04-25T07:13:19;10.95;;;5.35;;
51124;SDS011;37163;55.556;39.108;2023-04-25T07:15:45;6.45;;;3.00;;
51124;SDS011;37163;55.556;39.108;2023-04-25T07:18:14;5.20;;;2.88;;
51124;SDS011;37163;55.556;39.108;2023-04-25T07:20:41;5.22;;;3.00;;
51124;SDS011;37163;55.556;39.108;2023-04-25T07:23:07;4.38;;;2.80;;
51124;SDS011;37163;55.556;39.108;2023-04-25T07:25:34;5.40;;;2.70;;
51124;SDS011;37163;55.556;39.108;2023-04-25T07:28:01;5.28;;;2.15;;
51124;SDS011;37163;55.556;39.108;2023-04-25T07:30:28;4.32;;;2.58;;
51124;SDS011;37163;55.556;39.108;2023-04-25T07:32:54;4.03;;;2.35;;
51124;SDS011;37163;55.556;39.108;2023-04-25T07:35:21;4.97;;;2.75;;
51124;SDS011;37163;55.556;39.108;2023-04-25T07:37:49;5.53;;;3.05;;
51124;SDS011;37163;55.556;39.108;2023-04-25T07:40:19;4.30;;;2.70;;
51124;SDS011;37163;55.556;39.108;2023-04-25T07:42:49;4.70;;;2.90;;
51124;SDS011;37163;55.556;39.108;2023-04-25T07:45:22;6.20;;;2.72;;
51124;SDS011;37163;55.556;39.108;2023-04-25T07:47:49;4.65;;;2.20;;
51124;SDS011;37163;55.556;39.108;2023-04-25T07:50:17;4.15;;;2.60;;
51124;SDS011;37163;55.556;39.108;2023-04-25T07:52:44;5.03;;;2.70;;
51124;SDS011;37163;55.556;39.108;2023-04-25T07:55:23;4.22;;;2.25;;
51124;SDS011;37163;55.556;39.108;2023-04-25T07:58:00;3.97;;;2.17;;
51124;SDS011;37163;55.556;39.108;2023-04-25T08:00:29;12.57;;;8.07;;
51124;SDS011;37163;55.556;39.108;2023-04-25T08:03:15;10.27;;;5.40;;
51124;SDS011;37163;55.556;39.108;2023-04-25T08:05:42;6.82;;;3.47;;
51124;SDS011;37163;55.556;39.108;2023-04-25T08:08:09;5.78;;;2.50;;
51124;SDS011;37163;55.556;39.108;2023-04-25T08:10:36;6.82;;;2.65;;
51124;SDS011;37163;55.556;39.108;2023-04-25T08:13:03;3.90;;;2.50;;
51124;SDS011;37163;55.556;39.108;2023-04-25T08:15:29;5.57;;;2.75;;
51124;SDS011;37163;55.556;39.108;2023-04-25T08:17:56;5.72;;;3.22;;
51124;SDS011;37163;55.556;39.108;2023-04-25T08:20:23;4.45;;;2.50;;
51124;SDS011;37163;55.556;39.108;2023-04-25T08:22:52;8.80;;;3.75;;
51124;SDS011;37163;55.556;39.108;2023-04-25T08:25:54;5.75;;;2.95;;
51124;SDS011;37163;55.556;39.108;2023-04-25T08:28:25;5.78;;;3.25;;
51124;SDS011;37163;55.556;39.108;2023-04-25T08:30:52;15.57;;;9.15;;
51124;SDS011;37163;55.556;39.108;2023-04-25T08:33:19;7.55;;;4.97;;
51124;SDS011;37163;55.556;39.108;2023-04-25T08:35:58;5.43;;;3.20;;
51124;SDS011;37163;55.556;39.108;2023-04-25T08:38:26;5.15;;;3.15;;
51124;SDS011;37163;55.556;39.108;2023-04-25T08:40:53;4.97;;;2.88;;
51124;SDS011;37163;55.556;39.108;2023-04-25T08:43:22;5.22;;;3.47;;
51124;SDS011;37163;55.556;39.108;2023-04-25T08:45:49;6.57;;;3.28;;
51124;SDS011;37163;55.556;39.108;2023-04-25T08:48:32;6.25;;;2.85;;
51124;SDS011;37163;55.556;39.108;2023-04-25T08:51:01;4.35;;;3.00;;
51124;SDS011;37163;55.556;39.108;2023-04-25T08:53:30;4.30;;;2.78;;
51124;SDS011;37163;55.556;39.108;2023-04-25T08:56:00;5.15;;;2.95;;
51124;SDS011;37163;55.556;39.108;2023-04-25T08:58:28;3.53;;;2.50;;
51124;SDS011;37163;55.556;39.108;2023-04-25T09:00:54;5.03;;;2.63;;
51124;SDS011;37163;55.556;39.108;2023-04-25T09:03:25;6.25;;;2.78;;
51124;SDS011;37163;55.556;39.108;2023-04-25T09:05:52;5.97;;;2.92;;
51124;SDS011;37163;55.556;39.108;2023-04-25T09:08:20;4.25;;;2.63;;
51124;SDS011;37163;55.556;39.108;2023-04-25T09:10:47;5.72;;;3.60;;
51124;SDS011;37163;55.556;39.108;2023-04-25T09:13:14;4.93;;;3.03;;
51124;SDS011;37163;55.556;39.108;2023-04-25T09:16:02;4.22;;;2.88;;
51124;SDS011;37163;55.556;39.108;2023-04-25T09:18:50;5.65;;;3.22;;
51124;SDS011;37163;55.556;39.108;2023-04-25T09:21:17;4.93;;;2.92;;
51124;SDS011;37163;55.556;39.108;2023-04-25T09:23:49;4.60;;;2.60;;
51124;SDS011;37163;55.556;39.108;2023-04-25T09:26:19;4.18;;;2.65;;
51124;SDS011;37163;55.556;39.108;2023-04-25T09:28:47;3.60;;;2.45;;
51124;SDS011;37163;55.556;39.108;2023-04-25T09:31:23;4.22;;;2.70;;
51124;SDS011;37163;55.556;39.108;2023-04-25T09:34:00;4.03;;;2.70;;
51124;SDS011;37163;55.556;39.108;2023-04-25T09:36:29;4.82;;;3.10;;
51124;SDS011;37163;55.556;39.108;2023-04-25T09:39:19;4.03;;;2.65;;
51124;SDS011;37163;55.556;39.108;2023-04-25T09:41:55;6.18;;;2.88;;
51124;SDS011;37163;55.556;39.108;2023-04-25T09:44:25;3.55;;;2.63;;
51124;SDS011;37163;55.556;39.108;2023-04-25T09:46:54;4.07;;;2.53;;
51124;SDS011;37163;55.556;39.108;2023-04-25T09:49:24;5.93;;;2.70;;
51124;SDS011;37163;55.556;39.108;2023-04-25T09:52:06;7.18;;;3.67;;
51124;SDS011;37163;55.556;39.108;2023-04-25T09:54:51;4.53;;;2.15;;
51124;SDS011;37163;55.556;39.108;2023-04-25T09:57:25;4.13;;;2.28;;
51124;SDS011;37163;55.556;39.108;2023-04-25T09:59:54;3.88;;;2.20;;
51124;SDS011;37163;55.556;39.108;2023-04-25T10:02:23;3.90;;;2.40;;
51124;SDS011;37163;55.556;39.108;2023-04-25T10:04:54;5.40;;;2.60;;
51124;SDS011;37163;55.556;39.108;2023-04-25T10:07:32;3.78;;;2.22;;
51124;SDS011;37163;55.556;39.108;2023-04-25T10:10:01;7.85;;;2.58;;
51124;SDS011;37163;55.556;39.108;2023-04-25T10:12:32;3.30;;;2.15;;
51124;SDS011;37163;55.556;39.108;2023-04-25T10:14:59;4.22;;;2.10;;
51124;SDS011;37163;55.556;39.108;2023-04-25T10:17:29;3.22;;;2.10;;
51124;SDS011;37163;55.556;39.108;2023-04-25T10:19:56;3.15;;;2.33;;
51124;SDS011;37163;55.556;39.108;2023-04-25T10:22:23;3.25;;;2.08;;
51124;SDS011;37163;55.556;39.108;2023-04-25T10:24:56;3.72;;;2.40;;
51124;SDS011;37163;55.556;39.108;2023-04-25T10:27:23;3.33;;;1.80;;
51124;SDS011;37163;55.556;39.108;2023-04-25T10:32:36;4.68;;;2.25;;
51124;SDS011;37163;55.556;39.108;2023-04-25T10:35:15;4.28;;;2.40;;
51124;SDS011;37163;55.556;39.108;2023-04-25T10:37:58;5.05;;;2.25;;
51124;SDS011;37163;55.556;39.108;2023-04-25T10:40:32;4.57;;;2.70;;
51124;SDS011;37163;55.556;39.108;2023-04-25T10:45:57;4.30;;;2.65;;
51124;SDS011;37163;55.556;39.108;2023-04-25T10:48:27;5.38;;;2.50;;
51124;SDS011;37163;55.556;39.108;2023-04-25T10:51:07;4.25;;;2.50;;
51124;SDS011;37163;55.556;39.108;2023-04-25T10:53:37;4.78;;;2.50;;
51124;SDS011;37163;55.556;39.108;2023-04-25T10:56:10;5.05;;;2.50;;
51124;SDS011;37163;55.556;39.108;2023-04-25T10:58:41;4.43;;;3.00;;
51124;SDS011;37163;55.556;39.108;2023-04-25T11:01:09;5.10;;;3.08;;
51124;SDS011;37163;55.556;39.108;2023-04-25T11:03:42;3.88;;;2.13;;
51124;SDS011;37163;55.556;39.108;2023-04-25T11:08:49;4.70;;;2.58;;
51124;SDS011;37163;55.556;39.108;2023-04-25T11:11:17;5.38;;;2.80;;
51124;SDS011;37163;55.556;39.108;2023-04-25T11:13:47;4.10;;;2.63;;
51124;SDS011;37163;55.556;39.108;2023-04-25T11:16:14;3.25;;;2.33;;
51124;SDS011;37163;55.556;39.108;2023-04-25T11:18:41;3.17;;;2.45;;
51124;SDS011;37163;55.556;39.108;2023-04-25T11:21:08;3.45;;;2.20;;
51124;SDS011;37163;55.556;39.108;2023-04-25T11:23:35;3.08;;;2.47;;
51124;SDS011;37163;55.556;39.108;2023-04-25T11:26:02;5.07;;;2.83;;
51124;SDS011;37163;55.556;39.108;2023-04-25T11:28:29;4.15;;;2.70;;
51124;SDS011;37163;55.556;39.108;2023-04-25T11:30:56;3.33;;;2.47;;
51124;SDS011;37163;55.556;39.108;2023-04-25T11:33:23;5.85;;;3.90;;
51124;SDS011;37163;55.556;39.108;2023-04-25T11:35:53;7.85;;;4.82;;
51124;SDS011;37163;55.556;39.108;2023-04-25T11:38:21;4.65;;;3.10;;
51124;SDS011;37163;55.556;39.108;2023-04-25T11:40:54;4.57;;;2.45;;
51124;SDS011;37163;55.556;39.108;2023-04-25T11:43:21;4.00;;;2.92;;
51124;SDS011;37163;55.556;39.108;2023-04-25T11:45:48;3.67;;;2.20;;
51124;SDS011;37163;55.556;39.108;2023-04-25T11:48:16;3.25;;;2.25;;
51124;SDS011;37163;55.556;39.108;2023-04-25T11:50:43;3.75;;;2.50;;
51124;SDS011;37163;55.556;39.108;2023-04-25T11:53:10;4.03;;;2.28;;
51124;SDS011;37163;55.556;39.108;2023-04-25T11:55:37;3.13;;;2.13;;
51124;SDS011;37163;55.556;39.108;2023-04-25T11:58:03;3.70;;;2.50;;
51124;SDS011;37163;55.556;39.108;2023-04-25T12:00:30;3.55;;;2.50;;
51124;SDS011;37163;55.556;39.108;2023-04-25T12:02:58;3.35;;;2.35;;
51124;SDS011;37163;55.556;39.108;2023-04-25T12:05:27;3.15;;;2.20;;
51124;SDS011;37163;55.556;39.108;2023-04-25T12:07:54;5.97;;;2.35;;
51124;SDS011;37163;55.556;39.108;2023-04-25T12:10:21;4.32;;;2.50;;
51124;SDS011;37163;55.556;39.108;2023-04-25T12:12:48;4.55;;;2.25;;
51124;SDS011;37163;55.556;39.108;2023-04-25T12:15:17;5.88;;;2.97;;
51124;SDS011;37163;55.556;39.108;2023-04-25T12:17:49;5.40;;;2.30;;
51124;SDS011;37163;55.556;39.108;2023-04-25T12:20:17;4.40;;;2.08;;
51124;SDS011;37163;55.556;39.108;2023-04-25T12:22:56;3.63;;;1.75;;
51124;SDS011;37163;55.556;39.108;2023-04-25T12:25:42;3.42;;;2.20;;
51124;SDS011;37163;55.556;39.108;2023-04-25T12:28:11;6.32;;;2.25;;
51124;SDS011;37163;55.556;39.108;2023-04-25T12:31:06;4.30;;;2.28;;
51124;SDS011;37163;55.556;39.108;2023-04-25T12:33:34;3.05;;;1.90;;
51124;SDS011;37163;55.556;39.108;2023-04-25T12:36:02;3.55;;;2.20;;
51124;SDS011;37163;55.556;39.108;2023-04-25T12:38:38;3.15;;;1.80;;
51124;SDS011;37163;55.556;39.108;2023-04-25T12:41:07;4.60;;;2.03;;
51124;SDS011;37163;55.556;39.108;2023-04-25T12:43:34;3.92;;;2.22;;
51124;SDS011;37163;55.556;39.108;2023-04-25T12:46:00;3.28;;;1.83;;
51124;SDS011;37163;55.556;39.108;2023-04-25T12:48:27;2.58;;;1.73;;
51124;SDS011;37163;55.556;39.108;2023-04-25T12:50:54;3.80;;;2.08;;
51124;SDS011;37163;55.556;39.108;2023-04-25T12:53:21;4.53;;;2.10;;
51124;SDS011;37163;55.556;39.108;2023-04-25T12:55:49;4.05;;;1.88;;
51124;SDS011;37163;55.556;39.108;2023-04-25T12:58:17;3.35;;;1.83;;
51124;SDS011;37163;55.556;39.108;2023-04-25T13:00:44;2.42;;;1.85;;
51124;SDS011;37163;55.556;39.108;2023-04-25T13:03:11;3.63;;;1.90;;
51124;SDS011;37163;55.556;39.108;2023-04-25T13:05:38;3.22;;;1.98;;
51124;SDS011;37163;55.556;39.108;2023-04-25T13:08:05;3.90;;;2.13;;
51124;SDS011;37163;55.556;39.108;2023-04-25T13:10:31;4.45;;;1.58;;
51124;SDS011;37163;55.556;39.108;2023-04-25T13:12:59;3.67;;;1.88;;
51124;SDS011;37163;55.556;39.108;2023-04-25T13:15:27;5.25;;;2.00;;
51124;SDS011;37163;55.556;39.108;2023-04-25T13:17:55;2.63;;;1.58;;
51124;SDS011;37163;55.556;39.108;2023-04-25T13:20:22;3.35;;;1.67;;
51124;SDS011;37163;55.556;39.108;2023-04-25T13:22:48;3.17;;;1.95;;
51124;SDS011;37163;55.556;39.108;2023-04-25T13:25:15;4.72;;;2.00;;
51124;SDS011;37163;55.556;39.108;2023-04-25T13:27:42;6.72;;;2.05;;
51124;SDS011;37163;55.556;39.108;2023-04-25T13:30:10;4.63;;;2.42;;
51124;SDS011;37163;55.556;39.108;2023-04-25T13:32:37;2.58;;;1.33;;
51124;SDS011;37163;55.556;39.108;2023-04-25T13:35:05;2.33;;;1.55;;
51124;SDS011;37163;55.556;39.108;2023-04-25T13:37:33;8.95;;;8.02;;
51124;SDS011;37163;55.556;39.108;2023-04-25T13:40:00;5.10;;;4.10;;
51124;SDS011;37163;55.556;39.108;2023-04-25T13:42:33;3.95;;;2.42;;
51124;SDS011;37163;55.556;39.108;2023-04-25T13:44:59;5.40;;;2.40;;
51124;SDS011;37163;55.556;39.108;2023-04-25T13:47:26;4.38;;;2.00;;
51124;SDS011;37163;55.556;39.108;2023-04-25T13:49:53;3.78;;;1.80;;
51124;SDS011;37163;55.556;39.108;2023-04-25T13:52:20;3.97;;;2.10;;
51124;SDS011;37163;55.556;39.108;2023-04-25T13:54:46;1.90;;;1.42;;
51124;SDS011;37163;55.556;39.108;2023-04-25T13:57:13;4.28;;;1.83;;
51124;SDS011;37163;55.556;39.108;2023-04-25T13:59:39;4.07;;;1.80;;
51124;SDS011;37163;55.556;39.108;2023-04-25T14:02:06;4.75;;;1.92;;
51124;SDS011;37163;55.556;39.108;2023-04-25T14:04:33;5.10;;;2.70;;
51124;SDS011;37163;55.556;39.108;2023-04-25T14:07:00;2.90;;;1.83;;
51124;SDS011;37163;55.556;39.108;2023-04-25T14:09:28;6.88;;;1.90;;
51124;SDS011;37163;55.556;39.108;2023-04-25T14:11:55;4.20;;;2.25;;
51124;SDS011;37163;55.556;39.108;2023-04-25T14:14:22;5.15;;;3.10;;
51124;SDS011;37163;55.556;39.108;2023-04-25T14:16:49;3.88;;;2.80;;
51124;SDS011;37163;55.556;39.108;2023-04-25T14:19:20;4.18;;;2.17;;
51124;SDS011;37163;55.556;39.108;2023-04-25T14:21:47;3.63;;;2.00;;
51124;SDS011;37163;55.556;39.108;2023-04-25T14:24:13;3.95;;;1.92;;
51124;SDS011;37163;55.556;39.108;2023-04-25T14:26:40;6.35;;;2.15;;
51124;SDS011;37163;55.556;39.108;2023-04-25T14:29:08;5.18;;;1.67;;
51124;SDS011;37163;55.556;39.108;2023-04-25T14:31:35;4.30;;;1.58;;
51124;SDS011;37163;55.556;39.108;2023-04-25T14:34:02;4.53;;;1.80;;
51124;SDS011;37163;55.556;39.108;2023-04-25T14:36:28;4.38;;;2.33;;
51124;SDS011;37163;55.556;39.108;2023-04-25T14:38:56;4.05;;;1.80;;
51124;SDS011;37163;55.556;39.108;2023-04-25T14:41:24;5.13;;;2.35;;
51124;SDS011;37163;55.556;39.108;2023-04-25T14:43:50;3.08;;;2.15;;
51124;SDS011;37163;55.556;39.108;2023-04-25T14:46:17;3.42;;;2.40;;
51124;SDS011;37163;55.556;39.108;2023-04-25T14:48:43;4.78;;;2.17;;
51124;SDS011;37163;55.556;39.108;2023-04-25T14:51:10;7.70;;;2.20;;
51124;SDS011;37163;55.556;39.108;2023-04-25T14:53:36;4.53;;;2.25;;
51124;SDS011;37163;55.556;39.108;2023-04-25T14:56:03;4.15;;;2.47;;
51124;SDS011;37163;55.556;39.108;2023-04-25T14:58:30;4.10;;;2.50;;
51124;SDS011;37163;55.556;39.108;2023-04-25T15:00:57;6.25;;;2.47;;